Time;durP1;ratioP1;P1;durP2;ratioP2;P2;SDS_P1;SDS_P2;PMS_P1;PMS_P2;Temp;Humidity;BMP_temperature;BMP_pressure;BME280_temperature;BME280_humidity;BME280_pressure;Samples;Min_cycle;Max_cycle;Signal;HPM_P1;HPM_P2
2023/11/14 00:00:39;;;;;;;2.17;2.17;;;;;;;;;;6185121;28;20783;-71
2023/11/14 00:03:42;;;;;;;2.63;2.53;;;;;;;;;;6194449;28;20305;-70
2023/11/14 00:06:46;;;;;;;3.03;2.90;;;;;;;;;;6208800;28;20309;-73
2023/11/14 00:09:51;;;;;;;2.47;2.37;;;;;;;;;;6208269;28;20609;-74
2023/11/14 00:12:55;;;;;;;2.38;2.28;;;;;;;;;;6208373;28;20324;-73
2023/11/14 00:16:00;;;;;;;2.60;2.50;;;;;;;;;;6220812;28;20352;-71
2023/11/14 00:19:05;;;;;;;2.50;2.40;;;;;;;;;;6221904;28;20291;-72
2023/11/14 00:22:09;;;;;;;2.43;2.43;;;;;;;;;;6222246;28;20520;-72
2023/11/14 00:25:12;;;;;;;3.53;2.70;;;;;;;;;;6231615;28;20323;-71
2023/11/14 00:28:16;;;;;;;2.67;2.57;;;;;;;;;;6223094;28;20288;-70
2023/11/14 00:31:21;;;;;;;1.90;1.90;;;;;;;;;;6233214;28;20442;-72
2023/11/14 00:34:25;;;;;;;2.07;2.07;;;;;;;;;;6232801;28;20291;-72
2023/11/14 00:37:29;;;;;;;2.30;2.20;;;;;;;;;;6214764;28;20300;-70
2023/11/14 00:40:33;;;;;;;1.97;1.97;;;;;;;;;;6231927;28;20588;-72
2023/11/14 00:43:37;;;;;;;2.27;2.00;;;;;;;;;;6215322;28;20284;-71
2023/11/14 00:46:42;;;;;;;2.20;2.10;;;;;;;;;;6214387;28;20299;-71
2023/11/14 00:49:46;;;;;;;1.93;1.90;;;;;;;;;;6227687;28;20374;-73
2023/11/14 00:52:50;;;;;;;2.00;2.00;;;;;;;;;;6182833;28;20301;-73
2023/11/14 00:55:55;;;;;;;2.30;2.10;;;;;;;;;;6207583;28;20304;-71
2023/11/14 00:58:59;;;;;;;2.20;2.20;;;;;;;;;;6208152;28;20300;-71
2023/11/14 01:02:06;;;;;;;2.33;2.30;;;;;;;;;;6173050;28;20304;-72
2023/11/14 01:05:10;;;;;;;2.70;2.60;;;;;;;;;;6205177;28;20300;-71
2023/11/14 01:08:14;;;;;;;3.63;2.53;;;;;;;;;;6206777;28;20308;-71
2023/11/14 01:11:18;;;;;;;2.73;2.53;;;;;;;;;;6185191;28;20330;-71
2023/11/14 01:14:22;;;;;;;2.47;2.47;;;;;;;;;;6196442;28;20315;-71
2023/11/14 01:17:27;;;;;;;2.40;2.30;;;;;;;;;;6206987;28;20309;-73
2023/11/14 01:20:31;;;;;;;2.33;2.33;;;;;;;;;;6207680;28;20308;-71
2023/11/14 01:23:35;;;;;;;2.80;2.70;;;;;;;;;;6231137;28;20401;-71
2023/11/14 01:26:39;;;;;;;2.60;2.50;;;;;;;;;;6210405;28;20307;-71
2023/11/14 01:29:45;;;;;;;4.23;2.57;;;;;;;;;;6230972;28;20300;-71
2023/11/14 01:32:50;;;;;;;2.90;2.53;;;;;;;;;;6213222;28;20298;-70
2023/11/14 01:35:54;;;;;;;2.67;2.57;;;;;;;;;;6207170;28;20328;-70
2023/11/14 01:38:58;;;;;;;2.50;2.50;;;;;;;;;;6215196;28;20601;-70
2023/11/14 01:42:01;;;;;;;2.50;2.40;;;;;;;;;;6189925;28;20320;-71
2023/11/14 01:45:06;;;;;;;2.10;2.10;;;;;;;;;;6178916;28;20309;-72
2023/11/14 01:48:12;;;;;;;2.47;2.43;;;;;;;;;;6160077;28;20568;-71
2023/11/14 01:51:17;;;;;;;2.70;2.50;;;;;;;;;;6187761;28;20324;-70
2023/11/14 01:54:21;;;;;;;2.00;2.00;;;;;;;;;;6168840;28;20364;-71
2023/11/14 01:57:25;;;;;;;2.30;2.30;;;;;;;;;;6180693;28;20293;-72
2023/11/14 02:00:30;;;;;;;2.00;1.90;;;;;;;;;;6184522;28;20321;-71
2023/11/14 02:03:36;;;;;;;1.87;1.87;;;;;;;;;;6205552;28;20858;-72
2023/11/14 02:06:40;;;;;;;1.67;1.67;;;;;;;;;;6205254;28;20312;-70
2023/11/14 02:09:44;;;;;;;1.90;1.90;;;;;;;;;;6187820;28;20329;-70
2023/11/14 02:12:47;;;;;;;2.13;2.13;;;;;;;;;;6206561;28;20304;-71
2023/11/14 02:15:51;;;;;;;1.80;1.80;;;;;;;;;;6227408;28;20507;-71
2023/11/14 02:18:57;;;;;;;1.60;1.60;;;;;;;;;;6229283;28;20291;-71
2023/11/14 02:22:01;;;;;;;1.70;1.70;;;;;;;;;;6212595;28;20447;-73
2023/11/14 02:25:07;;;;;;;1.70;1.70;;;;;;;;;;6203067;28;20316;-70
2023/11/14 02:28:11;;;;;;;1.73;1.73;;;;;;;;;;6213052;28;20304;-71
2023/11/14 02:31:15;;;;;;;1.60;1.60;;;;;;;;;;6229949;28;20303;-72
2023/11/14 02:34:20;;;;;;;1.50;1.50;;;;;;;;;;6210852;28;20471;-70
2023/11/14 02:37:24;;;;;;;1.90;1.90;;;;;;;;;;6229843;28;20579;-70
2023/11/14 02:40:29;;;;;;;1.80;1.80;;;;;;;;;;6211373;28;20304;-72
2023/11/14 02:43:33;;;;;;;1.97;1.97;;;;;;;;;;6210557;28;20299;-71
2023/11/14 02:46:38;;;;;;;3.87;1.87;;;;;;;;;;6212031;28;20298;-71
2023/11/14 02:49:55;;;;;;;1.83;1.73;;;;;;;;;;6224066;28;20294;-72
2023/11/14 02:52:59;;;;;;;1.70;1.70;;;;;;;;;;6191636;28;20297;-71
2023/11/14 02:56:05;;;;;;;1.60;1.60;;;;;;;;;;6181576;28;20301;-71
2023/11/14 02:59:09;;;;;;;1.73;1.73;;;;;;;;;;6181193;28;20301;-72
2023/11/14 03:02:12;;;;;;;1.73;1.70;;;;;;;;;;6178758;28;20300;-70
2023/11/14 03:05:17;;;;;;;1.87;1.87;;;;;;;;;;6179114;28;20498;-70
2023/11/14 03:08:21;;;;;;;1.83;1.83;;;;;;;;;;6180238;28;20320;-72
2023/11/14 03:11:26;;;;;;;1.87;1.77;;;;;;;;;;6180859;28;20237;-70
2023/11/14 03:14:30;;;;;;;2.10;2.00;;;;;;;;;;6205521;28;20289;-71
2023/11/14 03:17:34;;;;;;;1.90;1.90;;;;;;;;;;6210119;28;20342;-72
2023/11/14 03:20:38;;;;;;;2.20;2.10;;;;;;;;;;6204268;28;20301;-72
2023/11/14 03:23:42;;;;;;;2.83;1.90;;;;;;;;;;6204621;28;20299;-71
2023/11/14 03:26:47;;;;;;;2.00;2.00;;;;;;;;;;6205255;28;20308;-72
2023/11/14 03:29:52;;;;;;;2.10;2.10;;;;;;;;;;6204115;28;20285;-71
2023/11/14 03:32:55;;;;;;;2.20;2.20;;;;;;;;;;6204326;28;20241;-70
2023/11/14 03:35:59;;;;;;;2.23;2.23;;;;;;;;;;6205056;28;20301;-71
2023/11/14 03:39:03;;;;;;;2.40;2.40;;;;;;;;;;6202649;28;20404;-72
2023/11/14 03:42:09;;;;;;;2.50;2.50;;;;;;;;;;6155543;28;20297;-72
2023/11/14 03:45:12;;;;;;;3.13;3.03;;;;;;;;;;6164905;28;20296;-71
2023/11/14 03:48:16;;;;;;;3.20;3.10;;;;;;;;;;6180207;28;20300;-71
2023/11/14 03:51:20;;;;;;;3.70;3.50;;;;;;;;;;6179406;28;20320;-71
2023/11/14 03:54:24;;;;;;;3.73;3.63;;;;;;;;;;6178293;28;20505;-70
2023/11/14 03:57:29;;;;;;;3.73;3.60;;;;;;;;;;6168298;28;20490;-71
2023/11/14 04:00:34;;;;;;;3.87;3.67;;;;;;;;;;6196296;28;20285;-73
2023/11/14 04:03:38;;;;;;;4.33;4.10;;;;;;;;;;6190357;28;20292;-71
2023/11/14 04:06:42;;;;;;;4.40;4.03;;;;;;;;;;6191304;28;20331;-71
2023/11/14 04:09:45;;;;;;;4.87;4.40;;;;;;;;;;6183010;28;20292;-71
2023/11/14 04:12:50;;;;;;;5.00;4.60;;;;;;;;;;6200729;28;20292;-71
2023/11/14 04:15:54;;;;;;;5.43;4.90;;;;;;;;;;6207625;28;20329;-71
2023/11/14 04:18:58;;;;;;;4.63;4.30;;;;;;;;;;6185199;28;20331;-73
2023/11/14 04:22:02;;;;;;;4.53;4.13;;;;;;;;;;6200833;28;20296;-72
2023/11/14 04:25:07;;;;;;;7.53;4.80;;;;;;;;;;6180059;28;20292;-71
2023/11/14 04:28:12;;;;;;;5.67;5.13;;;;;;;;;;6165507;28;20289;-72
2023/11/14 04:31:15;;;;;;;5.23;4.83;;;;;;;;;;6208726;28;20368;-71
2023/11/14 04:34:19;;;;;;;7.30;5.00;;;;;;;;;;6189658;28;20316;-71
2023/11/14 04:37:23;;;;;;;5.37;5.07;;;;;;;;;;6223510;28;20459;-71
2023/11/14 04:40:27;;;;;;;5.67;5.17;;;;;;;;;;6232094;28;20297;-71
2023/11/14 04:43:33;;;;;;;5.87;4.90;;;;;;;;;;6195626;28;20335;-71
2023/11/14 04:46:37;;;;;;;5.27;4.83;;;;;;;;;;6204111;28;20304;-71
2023/11/14 04:49:44;;;;;;;4.47;4.17;;;;;;;;;;6229300;28;20221;-71
2023/11/14 04:52:48;;;;;;;4.20;3.93;;;;;;;;;;6190080;28;20292;-71
2023/11/14 04:55:52;;;;;;;4.50;4.10;;;;;;;;;;6183941;28;20289;-71
2023/11/14 04:58:57;;;;;;;4.47;4.03;;;;;;;;;;6207209;28;20368;-70
2023/11/14 05:02:00;;;;;;;3.97;3.77;;;;;;;;;;6207732;28;20301;-70
2023/11/14 05:05:05;;;;;;;2.90;2.80;;;;;;;;;;6182020;28;20300;-71
2023/11/14 05:08:08;;;;;;;3.07;2.80;;;;;;;;;;6182893;28;20302;-71
2023/11/14 05:11:12;;;;;;;3.00;2.90;;;;;;;;;;6196637;28;20301;-71
2023/11/14 05:14:17;;;;;;;2.50;2.30;;;;;;;;;;6207267;28;20323;-70
2023/11/14 05:17:21;;;;;;;2.80;2.70;;;;;;;;;;6205574;28;20293;-72
2023/11/14 05:20:27;;;;;;;2.80;2.60;;;;;;;;;;6206755;28;20283;-70
2023/11/14 05:23:31;;;;;;;2.30;2.30;;;;;;;;;;6204892;28;20292;-71
2023/11/14 05:26:35;;;;;;;2.17;2.07;;;;;;;;;;6207439;28;20317;-71
2023/11/14 05:29:40;;;;;;;2.30;2.20;;;;;;;;;;6206985;28;20310;-71
2023/11/14 05:32:44;;;;;;;1.80;1.80;;;;;;;;;;6204340;28;20284;-73
2023/11/14 05:35:48;;;;;;;1.60;1.60;;;;;;;;;;6205816;28;20506;-71
2023/11/14 05:38:52;;;;;;;2.10;1.70;;;;;;;;;;6189114;28;20436;-70
2023/11/14 05:41:55;;;;;;;1.53;1.23;;;;;;;;;;6220447;28;20312;-71
2023/11/14 05:45:01;;;;;;;1.67;1.63;;;;;;;;;;6206349;28;20303;-71
2023/11/14 05:48:05;;;;;;;1.37;1.37;;;;;;;;;;6207842;28;20303;-71
2023/11/14 05:51:09;;;;;;;1.40;1.40;;;;;;;;;;6208110;28;20419;-70
2023/11/14 05:54:12;;;;;;;1.40;1.40;;;;;;;;;;6181519;28;20625;-71
2023/11/14 05:57:17;;;;;;;1.50;1.40;;;;;;;;;;6206779;28;20612;-71
2023/11/14 06:00:24;;;;;;;1.50;1.40;;;;;;;;;;6206219;28;20292;-71
2023/11/14 06:03:28;;;;;;;1.93;1.23;;;;;;;;;;6205851;28;20296;-71
2023/11/14 06:06:32;;;;;;;1.20;1.10;;;;;;;;;;6206706;28;20311;-71
2023/11/14 06:09:36;;;;;;;1.30;1.20;;;;;;;;;;6206483;28;20300;-71
2023/11/14 06:12:40;;;;;;;1.30;1.30;;;;;;;;;;6209732;28;20415;-70
2023/11/14 06:15:45;;;;;;;1.30;1.30;;;;;;;;;;6186873;28;20297;-71
2023/11/14 06:18:49;;;;;;;1.40;1.30;;;;;;;;;;6205592;28;20303;-72
2023/11/14 06:21:52;;;;;;;1.13;1.03;;;;;;;;;;6206147;28;20299;-70
2023/11/14 06:24:56;;;;;;;1.17;1.17;;;;;;;;;;6205562;28;20292;-72
2023/11/14 06:28:00;;;;;;;1.30;1.30;;;;;;;;;;6205733;28;20300;-71
2023/11/14 06:31:05;;;;;;;1.80;1.40;;;;;;;;;;6206391;28;20300;-72
2023/11/14 06:34:09;;;;;;;1.20;1.20;;;;;;;;;;6230178;28;20301;-72
2023/11/14 06:37:13;;;;;;;1.50;1.40;;;;;;;;;;6230142;28;20303;-71
2023/11/14 06:40:17;;;;;;;1.70;1.20;;;;;;;;;;6212581;28;20475;-73
2023/11/14 06:43:21;;;;;;;1.47;1.40;;;;;;;;;;6230285;28;20291;-71
2023/11/14 06:46:26;;;;;;;1.40;1.40;;;;;;;;;;6188744;28;20343;-73
2023/11/14 06:49:30;;;;;;;1.63;1.20;;;;;;;;;;6227852;28;20302;-70
2023/11/14 06:52:33;;;;;;;1.30;1.30;;;;;;;;;;6205840;28;20300;-73
2023/11/14 06:55:37;;;;;;;1.20;1.20;;;;;;;;;;6181122;28;20321;-71
2023/11/14 06:58:41;;;;;;;1.37;1.37;;;;;;;;;;6180743;28;20304;-72
2023/11/14 07:01:52;;;;;;;1.20;1.20;;;;;;;;;;6193813;28;20320;-71
2023/11/14 07:04:56;;;;;;;1.30;1.30;;;;;;;;;;6180554;28;20337;-70
2023/11/14 07:08:00;;;;;;;1.70;1.40;;;;;;;;;;6204698;28;20413;-69
2023/11/14 07:11:05;;;;;;;1.43;1.30;;;;;;;;;;6217154;28;20307;-71
2023/11/14 07:14:09;;;;;;;1.20;1.20;;;;;;;;;;6229119;28;20258;-68
2023/11/14 07:17:14;;;;;;;1.20;1.10;;;;;;;;;;6227601;28;20292;-70
2023/11/14 07:20:20;;;;;;;1.30;1.30;;;;;;;;;;6229339;28;20380;-70
2023/11/14 07:23:25;;;;;;;1.33;1.33;;;;;;;;;;6228583;28;20551;-71
2023/11/14 07:26:29;;;;;;;2.00;1.30;;;;;;;;;;6229321;28;20295;-71
2023/11/14 07:29:34;;;;;;;1.27;1.27;;;;;;;;;;6229236;28;20619;-69
2023/11/14 07:32:39;;;;;;;1.30;1.30;;;;;;;;;;6233770;28;20384;-71
2023/11/14 07:35:43;;;;;;;1.10;1.10;;;;;;;;;;6233521;28;20263;-71
2023/11/14 07:38:46;;;;;;;1.20;1.10;;;;;;;;;;6233798;28;20306;-70
2023/11/14 07:41:51;;;;;;;1.47;1.30;;;;;;;;;;6233891;28;20286;-71
2023/11/14 07:44:56;;;;;;;1.30;1.30;;;;;;;;;;6214766;28;20355;-71
2023/11/14 07:48:01;;;;;;;1.30;1.30;;;;;;;;;;6233078;28;20322;-72
2023/11/14 07:51:05;;;;;;;1.57;1.20;;;;;;;;;;6233548;28;21405;-70
2023/11/14 07:54:10;;;;;;;1.17;1.17;;;;;;;;;;6215664;28;20250;-71
2023/11/14 07:57:14;;;;;;;1.20;1.20;;;;;;;;;;6232901;28;20299;-71
2023/11/14 08:00:20;;;;;;;1.30;1.23;;;;;;;;;;6191446;28;20575;-71
2023/11/14 08:03:26;;;;;;;1.73;1.30;;;;;;;;;;6208240;28;20380;-70
2023/11/14 08:06:30;;;;;;;1.23;1.23;;;;;;;;;;6208800;28;20348;-72
2023/11/14 08:09:34;;;;;;;1.30;1.30;;;;;;;;;;6184191;28;20412;-69
2023/11/14 08:12:38;;;;;;;1.50;1.40;;;;;;;;;;6179596;28;20293;-70
2023/11/14 08:15:42;;;;;;;1.50;1.37;;;;;;;;;;6182576;28;20322;-70
2023/11/14 08:18:48;;;;;;;1.40;1.40;;;;;;;;;;6208369;28;20580;-69
2023/11/14 08:21:52;;;;;;;1.20;1.20;;;;;;;;;;6209112;28;20547;-70
2023/11/14 08:24:56;;;;;;;1.90;1.30;;;;;;;;;;6208508;28;20297;-70
2023/11/14 08:28:00;;;;;;;1.80;1.40;;;;;;;;;;6207562;28;20428;-70
2023/11/14 08:31:04;;;;;;;1.30;1.30;;;;;;;;;;6208335;28;20312;-72
2023/11/14 08:34:09;;;;;;;1.10;1.10;;;;;;;;;;6207877;28;20324;-70
2023/11/14 08:37:13;;;;;;;1.40;1.40;;;;;;;;;;6207610;28;20293;-70
2023/11/14 08:40:24;;;;;;;1.00;1.00;;;;;;;;;;6208379;28;20490;-70
2023/11/14 08:43:28;;;;;;;1.60;1.03;;;;;;;;;;6207809;28;20376;-71
2023/11/14 08:46:32;;;;;;;1.30;1.30;;;;;;;;;;6207315;28;20307;-71
2023/11/14 08:49:37;;;;;;;1.50;1.40;;;;;;;;;;6207906;28;20316;-70
2023/11/14 08:52:41;;;;;;;1.40;1.30;;;;;;;;;;6207977;28;20304;-72
2023/11/14 08:55:45;;;;;;;1.50;1.50;;;;;;;;;;6169077;28;20719;-71
2023/11/14 08:58:49;;;;;;;1.33;1.33;;;;;;;;;;6182726;28;20293;-72
2023/11/14 09:01:53;;;;;;;1.87;1.70;;;;;;;;;;6207584;28;20368;-70
2023/11/14 09:04:59;;;;;;;1.20;1.20;;;;;;;;;;6209956;28;20302;-70
2023/11/14 09:08:03;;;;;;;1.63;1.50;;;;;;;;;;6231488;28;20319;-70
2023/11/14 09:11:07;;;;;;;1.17;1.17;;;;;;;;;;6219482;28;20292;-70
2023/11/14 09:14:11;;;;;;;1.20;1.20;;;;;;;;;;6187437;28;20301;-71
2023/11/14 09:17:16;;;;;;;1.43;1.43;;;;;;;;;;6203105;28;20308;-71
2023/11/14 09:20:22;;;;;;;1.60;1.60;;;;;;;;;;6207061;28;20371;-71
2023/11/14 09:23:25;;;;;;;1.40;1.40;;;;;;;;;;6206858;28;20375;-70
2023/11/14 09:26:29;;;;;;;1.33;1.33;;;;;;;;;;6207234;28;20295;-70
2023/11/14 09:29:33;;;;;;;1.23;1.23;;;;;;;;;;6206699;28;20613;-71
2023/11/14 09:32:38;;;;;;;1.27;1.27;;;;;;;;;;6207039;28;20312;-71
2023/11/14 09:35:43;;;;;;;1.57;1.57;;;;;;;;;;6206500;28;20292;-70
2023/11/14 09:38:47;;;;;;;1.40;1.40;;;;;;;;;;6206708;28;20300;-72
2023/11/14 09:41:51;;;;;;;1.93;1.83;;;;;;;;;;6207416;28;20321;-72
2023/11/14 09:44:55;;;;;;;1.50;1.40;;;;;;;;;;6189205;28;20293;-70
2023/11/14 09:47:59;;;;;;;1.10;1.10;;;;;;;;;;6205997;28;20317;-70
2023/11/14 09:51:06;;;;;;;1.37;1.37;;;;;;;;;;6206861;28;20477;-70
2023/11/14 09:54:11;;;;;;;1.30;1.30;;;;;;;;;;6205242;28;20316;-70
2023/11/14 09:57:15;;;;;;;1.20;1.20;;;;;;;;;;6205913;28;20301;-70
2023/11/14 10:00:19;;;;;;;1.30;1.30;;;;;;;;;;6205855;28;20285;-69
2023/11/14 10:03:23;;;;;;;2.17;1.30;;;;;;;;;;6205862;28;20308;-70
2023/11/14 10:06:28;;;;;;;1.47;1.47;;;;;;;;;;6206857;28;20312;-70
2023/11/14 10:09:32;;;;;;;1.40;1.23;;;;;;;;;;6204240;28;20293;-70
2023/11/14 10:12:36;;;;;;;1.33;1.30;;;;;;;;;;6206369;28;20296;-69
2023/11/14 10:15:40;;;;;;;1.50;1.40;;;;;;;;;;6203883;28;20289;-70
2023/11/14 10:18:44;;;;;;;1.30;1.30;;;;;;;;;;6205633;28;20345;-71
2023/11/14 10:21:49;;;;;;;1.30;1.30;;;;;;;;;;6206195;28;20305;-70
2023/11/14 10:24:53;;;;;;;1.20;1.20;;;;;;;;;;6206171;28;20288;-71
2023/11/14 10:27:59;;;;;;;1.50;1.50;;;;;;;;;;6205760;28;20289;-71
2023/11/14 10:31:04;;;;;;;1.20;1.20;;;;;;;;;;6206125;28;20614;-74
2023/11/14 10:34:27;;;;;;;2.53;1.10;;;;;;;;;;6205501;28;20512;-72
2023/11/14 10:37:34;;;;;;;1.20;1.20;;;;;;;;;;6205964;28;20480;-70
2023/11/14 10:40:45;;;;;;;1.30;1.20;;;;;;;;;;6205100;28;20558;-71
2023/11/14 10:43:48;;;;;;;1.13;1.13;;;;;;;;;;6187797;28;20308;-71
2023/11/14 10:46:53;;;;;;;1.10;1.10;;;;;;;;;;6206006;28;20299;-72
2023/11/14 10:49:58;;;;;;;1.30;1.30;;;;;;;;;;6205423;28;20308;-70
2023/11/14 10:53:03;;;;;;;1.13;1.13;;;;;;;;;;6205159;28;20300;-71
2023/11/14 10:56:08;;;;;;;1.20;1.20;;;;;;;;;;6173016;28;20514;-71
2023/11/14 10:59:14;;;;;;;1.30;1.30;;;;;;;;;;6181013;28;20293;-69
2023/11/14 11:02:18;;;;;;;1.00;1.00;;;;;;;;;;6181518;28;20320;-69
2023/11/14 11:05:28;;;;;;;1.17;1.17;;;;;;;;;;6184152;28;20325;-71
2023/11/14 11:08:36;;;;;;;1.13;1.10;;;;;;;;;;6160688;28;20400;-73
2023/11/14 11:11:43;;;;;;;1.70;1.60;;;;;;;;;;6179695;28;20375;-71
2023/11/14 11:14:49;;;;;;;1.20;1.20;;;;;;;;;;6186690;28;20616;-70
2023/11/14 11:18:00;;;;;;;1.10;1.10;;;;;;;;;;6184619;28;20397;-71
2023/11/14 11:21:08;;;;;;;1.20;1.20;;;;;;;;;;6186684;28;20293;-71
2023/11/14 11:24:14;;;;;;;1.70;1.70;;;;;;;;;;6186429;28;20302;-71
2023/11/14 11:27:20;;;;;;;1.20;1.20;;;;;;;;;;6185463;28;20293;-71
2023/11/14 11:30:26;;;;;;;1.07;1.07;;;;;;;;;;6209836;28;20297;-70
2023/11/14 11:33:33;;;;;;;1.90;0.90;;;;;;;;;;6208685;28;20505;-71
2023/11/14 11:36:37;;;;;;;1.40;1.40;;;;;;;;;;6209913;28;20303;-71
2023/11/14 11:40:07;;;;;;;3.07;1.50;;;;;;;;;;6209825;28;20300;-72
2023/11/14 11:43:18;;;;;;;1.20;1.20;;;;;;;;;;6204270;28;20292;-69
2023/11/14 11:46:42;;;;;;;1.40;1.30;;;;;;;;;;6210384;28;20357;-71
2023/11/14 11:49:46;;;;;;;1.37;1.23;;;;;;;;;;6208663;28;20313;-70
2023/11/14 11:52:59;;;;;;;1.47;1.20;;;;;;;;;;6210674;28;20529;-71
2023/11/14 11:56:05;;;;;;;1.33;1.33;;;;;;;;;;6233307;28;20300;-71
2023/11/14 11:59:09;;;;;;;1.37;1.30;;;;;;;;;;6221629;28;20507;-72
2023/11/14 12:02:14;;;;;;;1.27;1.27;;;;;;;;;;6209410;28;20284;-70
2023/11/14 12:05:18;;;;;;;1.20;1.20;;;;;;;;;;6208740;28;20300;-70
2023/11/14 12:08:23;;;;;;;1.20;1.20;;;;;;;;;;6184783;28;20305;-70
2023/11/14 12:11:29;;;;;;;1.43;1.40;;;;;;;;;;6224185;28;20296;-71
2023/11/14 12:14:32;;;;;;;1.30;1.30;;;;;;;;;;6214528;28;20347;-70
2023/11/14 12:17:36;;;;;;;1.33;1.33;;;;;;;;;;6230570;28;20324;-70
2023/11/14 12:20:41;;;;;;;1.70;1.60;;;;;;;;;;6232773;28;20395;-70
2023/11/14 12:23:45;;;;;;;1.50;1.50;;;;;;;;;;6232429;28;20284;-70
2023/11/14 12:26:50;;;;;;;1.90;1.60;;;;;;;;;;6232933;28;20287;-70
2023/11/14 12:30:09;;;;;;;1.40;1.40;;;;;;;;;;6232515;28;20296;-70
2023/11/14 12:33:16;;;;;;;1.57;1.47;;;;;;;;;;6231821;28;20300;-71
2023/11/14 12:36:23;;;;;;;1.67;1.60;;;;;;;;;;6232643;28;20302;-72
2023/11/14 12:39:27;;;;;;;2.00;1.40;;;;;;;;;;6224610;28;20550;-72
2023/11/14 12:42:33;;;;;;;1.30;1.30;;;;;;;;;;6199455;28;20301;-70
2023/11/14 12:45:47;;;;;;;1.23;1.20;;;;;;;;;;6232029;28;20421;-71
2023/11/14 12:49:11;;;;;;;1.37;1.37;;;;;;;;;;6230490;28;20299;-71
2023/11/14 12:52:16;;;;;;;1.47;1.37;;;;;;;;;;6233279;28;20300;-71
2023/11/14 12:55:20;;;;;;;1.70;1.60;;;;;;;;;;6232919;28;20287;-70
2023/11/14 12:58:26;;;;;;;1.63;1.40;;;;;;;;;;6232545;28;20290;-71
2023/11/14 13:01:30;;;;;;;1.50;1.50;;;;;;;;;;6231425;28;20324;-73
2023/11/14 13:04:34;;;;;;;1.50;1.40;;;;;;;;;;6231326;28;20304;-71
2023/11/14 13:07:38;;;;;;;1.60;1.43;;;;;;;;;;6232016;28;20303;-72
2023/11/14 13:10:42;;;;;;;1.33;1.33;;;;;;;;;;6222387;28;20304;-72
2023/11/14 13:13:47;;;;;;;1.43;1.43;;;;;;;;;;6206891;28;20621;-71
2023/11/14 13:16:51;;;;;;;1.40;1.40;;;;;;;;;;6205808;28;20232;-71
2023/11/14 13:19:55;;;;;;;1.00;1.00;;;;;;;;;;6206594;28;20303;-70
2023/11/14 13:23:02;;;;;;;1.40;1.40;;;;;;;;;;6207228;28;20317;-71
2023/11/14 13:26:07;;;;;;;1.40;1.20;;;;;;;;;;6206853;28;20309;-71
2023/11/14 13:29:12;;;;;;;1.20;1.20;;;;;;;;;;6205792;28;20296;-72
2023/11/14 13:32:16;;;;;;;3.00;1.37;;;;;;;;;;6207256;28;20300;-72
2023/11/14 13:35:20;;;;;;;1.20;1.20;;;;;;;;;;6206641;28;20456;-71
2023/11/14 13:38:25;;;;;;;1.40;1.20;;;;;;;;;;6205859;28;20312;-71
2023/11/14 13:41:29;;;;;;;1.20;1.20;;;;;;;;;;6206337;28;20496;-72
2023/11/14 13:44:35;;;;;;;1.50;1.40;;;;;;;;;;6205943;28;20598;-71
2023/11/14 13:47:40;;;;;;;1.20;1.20;;;;;;;;;;6205429;28;20368;-70
2023/11/14 13:50:44;;;;;;;1.13;1.13;;;;;;;;;;6181886;28;20320;-71
2023/11/14 13:53:49;;;;;;;1.13;1.13;;;;;;;;;;6200558;28;20295;-74
2023/11/14 13:56:55;;;;;;;1.17;1.17;;;;;;;;;;6194027;28;20311;-71
2023/11/14 14:00:01;;;;;;;1.27;1.27;;;;;;;;;;6206030;28;20300;-71
2023/11/14 14:03:06;;;;;;;1.27;1.27;;;;;;;;;;6206039;28;20309;-72
2023/11/14 14:06:10;;;;;;;0.90;0.90;;;;;;;;;;6206350;28;20305;-71
2023/11/14 14:09:16;;;;;;;1.20;1.20;;;;;;;;;;6205165;28;20280;-72
2023/11/14 14:12:20;;;;;;;0.90;0.90;;;;;;;;;;6205744;28;20289;-70
2023/11/14 14:15:26;;;;;;;1.00;1.00;;;;;;;;;;6228185;28;20300;-69
2023/11/14 14:18:31;;;;;;;1.00;1.00;;;;;;;;;;6221974;28;20308;-71
2023/11/14 14:21:36;;;;;;;0.90;0.90;;;;;;;;;;6229757;28;20299;-71
2023/11/14 14:24:40;;;;;;;0.90;0.80;;;;;;;;;;6229220;28;20300;-70
2023/11/14 14:27:44;;;;;;;1.27;1.00;;;;;;;;;;6212533;28;20320;-70
2023/11/14 14:30:50;;;;;;;1.43;1.10;;;;;;;;;;6229675;28;20323;-72
2023/11/14 14:33:54;;;;;;;1.30;1.30;;;;;;;;;;6229677;28;20323;-71
2023/11/14 14:36:59;;;;;;;1.10;1.10;;;;;;;;;;6229577;28;20292;-72
2023/11/14 14:40:05;;;;;;;1.00;1.00;;;;;;;;;;6224128;28;20323;-72
2023/11/14 14:43:09;;;;;;;1.00;1.00;;;;;;;;;;6181477;28;20484;-72
2023/11/14 14:46:15;;;;;;;1.40;1.30;;;;;;;;;;6181089;28;20318;-72
2023/11/14 14:49:19;;;;;;;1.40;1.40;;;;;;;;;;6180323;28;20293;-72
2023/11/14 14:52:24;;;;;;;3.90;1.70;;;;;;;;;;6197378;28;20297;-71
2023/11/14 14:55:28;;;;;;;1.63;1.33;;;;;;;;;;6184522;28;20304;-73
2023/11/14 14:58:32;;;;;;;1.40;1.40;;;;;;;;;;6205635;28;20705;-71
2023/11/14 15:01:38;;;;;;;1.70;1.60;;;;;;;;;;6195940;28;20236;-70
2023/11/14 15:04:43;;;;;;;3.70;1.23;;;;;;;;;;6229131;28;20314;-69
2023/11/14 15:07:48;;;;;;;1.20;1.20;;;;;;;;;;6229140;28;20286;-70
2023/11/14 15:10:52;;;;;;;1.37;1.33;;;;;;;;;;6219060;28;20604;-70
2023/11/14 15:13:57;;;;;;;1.17;1.17;;;;;;;;;;6204629;28;20288;-71
2023/11/14 15:17:02;;;;;;;1.17;1.17;;;;;;;;;;6203913;28;20304;-72
2023/11/14 15:20:10;;;;;;;1.30;1.30;;;;;;;;;;6204895;28;20335;-68
2023/11/14 15:23:17;;;;;;;1.20;1.20;;;;;;;;;;6181104;28;20305;-70
2023/11/14 15:26:22;;;;;;;1.00;1.00;;;;;;;;;;6189688;28;20300;-70
2023/11/14 15:29:26;;;;;;;1.10;1.10;;;;;;;;;;6204923;28;20289;-71
2023/11/14 15:32:31;;;;;;;1.00;1.00;;;;;;;;;;6187722;28;20516;-71
2023/11/14 15:35:35;;;;;;;1.13;1.00;;;;;;;;;;6204918;28;20304;-70
2023/11/14 15:38:39;;;;;;;1.60;0.97;;;;;;;;;;6205247;28;20296;-70
2023/11/14 15:41:43;;;;;;;1.20;1.10;;;;;;;;;;6204823;28;20305;-69
2023/11/14 15:44:47;;;;;;;1.00;1.00;;;;;;;;;;6204846;28;20312;-69
2023/11/14 15:47:52;;;;;;;0.90;0.90;;;;;;;;;;6205127;28;20332;-70
2023/11/14 15:50:59;;;;;;;1.10;1.10;;;;;;;;;;6208376;28;20303;-71
2023/11/14 15:54:03;;;;;;;2.30;1.20;;;;;;;;;;6233498;28;20349;-71
2023/11/14 15:57:07;;;;;;;1.47;1.20;;;;;;;;;;6233797;28;20616;-70
2023/11/14 16:00:12;;;;;;;1.20;1.10;;;;;;;;;;6233596;28;20295;-75
2023/11/14 16:03:17;;;;;;;0.97;0.97;;;;;;;;;;6209100;28;20312;-69
2023/11/14 16:06:21;;;;;;;1.10;1.10;;;;;;;;;;6233866;28;20292;-69
2023/11/14 16:09:25;;;;;;;1.10;1.10;;;;;;;;;;6233169;28;20293;-70
2023/11/14 16:12:29;;;;;;;1.00;1.00;;;;;;;;;;6209985;28;20313;-70
2023/11/14 16:15:32;;;;;;;1.00;1.00;;;;;;;;;;6182691;28;20591;-70
2023/11/14 16:18:37;;;;;;;1.10;1.10;;;;;;;;;;6175814;28;20440;-71
2023/11/14 16:21:44;;;;;;;1.17;1.13;;;;;;;;;;6208479;28;20288;-70
2023/11/14 16:24:48;;;;;;;1.30;1.20;;;;;;;;;;6182908;28;20289;-70
2023/11/14 16:27:51;;;;;;;1.27;1.17;;;;;;;;;;6184906;28;20483;-70
2023/11/14 16:30:56;;;;;;;2.73;1.40;;;;;;;;;;6182952;28;20486;-70
2023/11/14 16:34:01;;;;;;;1.40;1.23;;;;;;;;;;6184169;28;20304;-69
2023/11/14 16:37:05;;;;;;;1.30;1.30;;;;;;;;;;6184306;28;20507;-70
2023/11/14 16:40:10;;;;;;;1.10;1.10;;;;;;;;;;6182772;28;20521;-69
2023/11/14 16:43:13;;;;;;;1.20;1.10;;;;;;;;;;6189370;28;20324;-69
2023/11/14 16:46:17;;;;;;;1.10;1.10;;;;;;;;;;6192846;28;20292;-72
2023/11/14 16:49:22;;;;;;;2.63;1.00;;;;;;;;;;6180883;28;20301;-71
2023/11/14 16:52:28;;;;;;;2.87;1.00;;;;;;;;;;6194392;28;20311;-72
2023/11/14 16:55:32;;;;;;;0.90;0.90;;;;;;;;;;6163335;28;20325;-71
2023/11/14 16:58:35;;;;;;;1.03;1.00;;;;;;;;;;6197009;28;20343;-70
2023/11/14 17:01:40;;;;;;;1.00;1.00;;;;;;;;;;6206664;28;20291;-69
2023/11/14 17:04:45;;;;;;;1.17;1.17;;;;;;;;;;6208012;28;20464;-71
2023/11/14 17:07:48;;;;;;;1.37;1.23;;;;;;;;;;6209470;28;20426;-75
2023/11/14 17:10:52;;;;;;;1.30;1.30;;;;;;;;;;6207873;28;20360;-68
2023/11/14 17:13:56;;;;;;;1.30;1.30;;;;;;;;;;6207219;28;20305;-70
2023/11/14 17:17:00;;;;;;;1.30;1.20;;;;;;;;;;6206157;28;20321;-71
2023/11/14 17:20:07;;;;;;;3.13;1.10;;;;;;;;;;6207588;28;20305;-70
2023/11/14 17:23:11;;;;;;;2.03;1.30;;;;;;;;;;6207491;28;20332;-70
2023/11/14 17:26:14;;;;;;;1.27;1.17;;;;;;;;;;6206759;28;20586;-74
2023/11/14 17:29:20;;;;;;;1.50;1.50;;;;;;;;;;6206987;28;20292;-71
2023/11/14 17:32:24;;;;;;;1.70;1.60;;;;;;;;;;6200762;28;20691;-70
2023/11/14 17:35:29;;;;;;;1.30;1.20;;;;;;;;;;6231262;28;20368;-70
2023/11/14 17:38:33;;;;;;;1.27;1.17;;;;;;;;;;6211434;28;20289;-71
2023/11/14 17:41:37;;;;;;;1.30;1.30;;;;;;;;;;6187576;28;20489;-73
2023/11/14 17:44:41;;;;;;;1.40;1.40;;;;;;;;;;6206328;28;20486;-71
2023/11/14 17:47:45;;;;;;;1.40;1.40;;;;;;;;;;6206720;28;20289;-70
2023/11/14 17:50:51;;;;;;;1.30;1.30;;;;;;;;;;6206298;28;20281;-71
2023/11/14 17:53:55;;;;;;;1.40;1.30;;;;;;;;;;6206316;28;20300;-71
2023/11/14 17:56:58;;;;;;;1.30;1.30;;;;;;;;;;6205512;28;20293;-73
2023/11/14 18:00:03;;;;;;;1.30;1.30;;;;;;;;;;6203794;28;20320;-72
2023/11/14 18:03:07;;;;;;;1.50;1.40;;;;;;;;;;6206344;28;20320;-71
2023/11/14 18:06:12;;;;;;;1.37;1.37;;;;;;;;;;6206461;28;20296;-74
2023/11/14 18:09:17;;;;;;;1.30;1.30;;;;;;;;;;6205102;28;20288;-71
2023/11/14 18:12:21;;;;;;;1.33;1.33;;;;;;;;;;6228791;28;20294;-74
2023/11/14 18:15:26;;;;;;;1.30;1.30;;;;;;;;;;6229415;28;20323;-72
2023/11/14 18:18:29;;;;;;;2.43;1.10;;;;;;;;;;6230568;28;20304;-70
2023/11/14 18:21:35;;;;;;;3.73;1.33;;;;;;;;;;6219062;28;20443;-73
2023/11/14 18:24:40;;;;;;;1.53;1.53;;;;;;;;;;6230276;28;20316;-71
2023/11/14 18:27:45;;;;;;;1.10;1.10;;;;;;;;;;6230124;28;20327;-71